sensor_id;sensor_type;location;lat;lon;timestamp;P1;durP1;ratioP1;P2;durP2;ratioP2
39924;SDS011;25592;49.986;11.618;2024-02-04T00:00:38;126.43;;;58.77;;
39924;SDS011;25592;49.986;11.618;2024-02-04T00:03:23;128.90;;;58.87;;
39924;SDS011;25592;49.986;11.618;2024-02-04T00:06:09;127.10;;;58.40;;
39924;SDS011;25592;49.986;11.618;2024-02-04T00:08:55;129.10;;;58.53;;
39924;SDS011;25592;49.986;11.618;2024-02-04T00:11:41;129.97;;;59.93;;
39924;SDS011;25592;49.986;11.618;2024-02-04T00:14:26;129.93;;;60.63;;
39924;SDS011;25592;49.986;11.618;2024-02-04T00:17:11;127.27;;;57.30;;
39924;SDS011;25592;49.986;11.618;2024-02-04T00:19:59;126.87;;;57.17;;
39924;SDS011;25592;49.986;11.618;2024-02-04T00:22:46;128.77;;;58.50;;
39924;SDS011;25592;49.986;11.618;2024-02-04T00:25:31;131.60;;;59.37;;
39924;SDS011;25592;49.986;11.618;2024-02-04T00:28:17;129.63;;;59.03;;
39924;SDS011;25592;49.986;11.618;2024-02-04T00:31:03;129.00;;;58.70;;
39924;SDS011;25592;49.986;11.618;2024-02-04T00:33:49;130.03;;;59.23;;
39924;SDS011;25592;49.986;11.618;2024-02-04T00:36:34;131.17;;;59.87;;
39924;SDS011;25592;49.986;11.618;2024-02-04T00:39:20;131.53;;;58.30;;
39924;SDS011;25592;49.986;11.618;2024-02-04T00:42:05;131.30;;;58.67;;
39924;SDS011;25592;49.986;11.618;2024-02-04T00:44:50;130.37;;;58.83;;
39924;SDS011;25592;49.986;11.618;2024-02-04T00:47:36;131.87;;;59.23;;
39924;SDS011;25592;49.986;11.618;2024-02-04T00:50:21;132.60;;;58.07;;
39924;SDS011;25592;49.986;11.618;2024-02-04T00:53:07;134.97;;;58.67;;
39924;SDS011;25592;49.986;11.618;2024-02-04T00:55:52;138.93;;;63.17;;
39924;SDS011;25592;49.986;11.618;2024-02-04T00:58:38;138.70;;;59.40;;
39924;SDS011;25592;49.986;11.618;2024-02-04T01:01:23;132.13;;;58.07;;
39924;SDS011;25592;49.986;11.618;2024-02-04T01:04:09;130.70;;;59.13;;
39924;SDS011;25592;49.986;11.618;2024-02-04T01:06:54;129.40;;;59.47;;
39924;SDS011;25592;49.986;11.618;2024-02-04T01:09:45;120.67;;;58.40;;
39924;SDS011;25592;49.986;11.618;2024-02-04T01:12:31;115.80;;;56.97;;
39924;SDS011;25592;49.986;11.618;2024-02-04T01:15:16;117.90;;;59.43;;
39924;SDS011;25592;49.986;11.618;2024-02-04T01:18:02;116.30;;;56.97;;
39924;SDS011;25592;49.986;11.618;2024-02-04T01:20:48;118.10;;;56.63;;
39924;SDS011;25592;49.986;11.618;2024-02-04T01:23:33;116.07;;;56.90;;
39924;SDS011;25592;49.986;11.618;2024-02-04T01:26:19;117.37;;;56.87;;
39924;SDS011;25592;49.986;11.618;2024-02-04T01:29:05;117.27;;;57.80;;
39924;SDS011;25592;49.986;11.618;2024-02-04T01:31:50;116.80;;;56.43;;
39924;SDS011;25592;49.986;11.618;2024-02-04T01:34:35;116.13;;;57.67;;
39924;SDS011;25592;49.986;11.618;2024-02-04T01:37:21;116.47;;;57.53;;
39924;SDS011;25592;49.986;11.618;2024-02-04T01:40:06;117.43;;;57.10;;
39924;SDS011;25592;49.986;11.618;2024-02-04T01:42:52;117.13;;;57.67;;
39924;SDS011;25592;49.986;11.618;2024-02-04T01:45:38;118.50;;;58.07;;
39924;SDS011;25592;49.986;11.618;2024-02-04T01:48:23;117.27;;;57.77;;
39924;SDS011;25592;49.986;11.618;2024-02-04T01:51:10;118.17;;;57.27;;
39924;SDS011;25592;49.986;11.618;2024-02-04T01:53:56;117.53;;;57.77;;
39924;SDS011;25592;49.986;11.618;2024-02-04T01:56:41;118.23;;;56.83;;
39924;SDS011;25592;49.986;11.618;2024-02-04T01:59:28;117.30;;;58.37;;
39924;SDS011;25592;49.986;11.618;2024-02-04T02:02:15;118.10;;;57.63;;
39924;SDS011;25592;49.986;11.618;2024-02-04T02:05:01;118.03;;;57.30;;
39924;SDS011;25592;49.986;11.618;2024-02-04T02:07:46;119.27;;;57.23;;
39924;SDS011;25592;49.986;11.618;2024-02-04T02:10:35;119.03;;;57.50;;
39924;SDS011;25592;49.986;11.618;2024-02-04T02:13:22;115.87;;;57.13;;
39924;SDS011;25592;49.986;11.618;2024-02-04T02:16:13;114.53;;;55.60;;
39924;SDS011;25592;49.986;11.618;2024-02-04T02:19:15;114.13;;;55.90;;
39924;SDS011;25592;49.986;11.618;2024-02-04T02:22:38;115.77;;;57.07;;
39924;SDS011;25592;49.986;11.618;2024-02-04T02:25:33;115.67;;;55.90;;
39924;SDS011;25592;49.986;11.618;2024-02-04T02:28:21;117.77;;;58.00;;
39924;SDS011;25592;49.986;11.618;2024-02-04T02:31:07;118.30;;;57.43;;
39924;SDS011;25592;49.986;11.618;2024-02-04T02:33:52;120.13;;;58.43;;
39924;SDS011;25592;49.986;11.618;2024-02-04T02:36:43;120.67;;;56.63;;
39924;SDS011;25592;49.986;11.618;2024-02-04T02:39:31;120.47;;;58.40;;
39924;SDS011;25592;49.986;11.618;2024-02-04T02:42:20;116.37;;;58.27;;
39924;SDS011;25592;49.986;11.618;2024-02-04T02:45:08;118.33;;;57.80;;
39924;SDS011;25592;49.986;11.618;2024-02-04T02:47:56;114.83;;;56.17;;
39924;SDS011;25592;49.986;11.618;2024-02-04T02:50:41;121.17;;;60.03;;
39924;SDS011;25592;49.986;11.618;2024-02-04T02:53:27;119.17;;;57.07;;
39924;SDS011;25592;49.986;11.618;2024-02-04T02:56:12;117.07;;;57.60;;
39924;SDS011;25592;49.986;11.618;2024-02-04T02:58:58;123.63;;;59.20;;
39924;SDS011;25592;49.986;11.618;2024-02-04T03:01:43;119.73;;;58.77;;
39924;SDS011;25592;49.986;11.618;2024-02-04T03:04:29;116.73;;;58.67;;
39924;SDS011;25592;49.986;11.618;2024-02-04T03:07:14;119.37;;;58.07;;
39924;SDS011;25592;49.986;11.618;2024-02-04T03:09:59;117.13;;;56.50;;
39924;SDS011;25592;49.986;11.618;2024-02-04T03:12:45;119.73;;;58.50;;
39924;SDS011;25592;49.986;11.618;2024-02-04T03:15:31;120.27;;;57.50;;
39924;SDS011;25592;49.986;11.618;2024-02-04T03:18:16;123.30;;;57.57;;
39924;SDS011;25592;49.986;11.618;2024-02-04T03:21:02;123.87;;;58.40;;
39924;SDS011;25592;49.986;11.618;2024-02-04T03:23:47;121.13;;;57.47;;
39924;SDS011;25592;49.986;11.618;2024-02-04T03:26:33;124.50;;;59.63;;
39924;SDS011;25592;49.986;11.618;2024-02-04T03:29:18;123.77;;;58.90;;
39924;SDS011;25592;49.986;11.618;2024-02-04T03:32:04;123.03;;;58.73;;
39924;SDS011;25592;49.986;11.618;2024-02-04T03:34:49;132.37;;;60.50;;
39924;SDS011;25592;49.986;11.618;2024-02-04T03:37:35;125.23;;;58.63;;
39924;SDS011;25592;49.986;11.618;2024-02-04T03:40:20;123.67;;;59.43;;
39924;SDS011;25592;49.986;11.618;2024-02-04T03:43:09;125.03;;;58.23;;
39924;SDS011;25592;49.986;11.618;2024-02-04T03:45:54;124.70;;;62.27;;
39924;SDS011;25592;49.986;11.618;2024-02-04T03:48:40;122.13;;;57.17;;
39924;SDS011;25592;49.986;11.618;2024-02-04T03:51:26;124.00;;;57.87;;
39924;SDS011;25592;49.986;11.618;2024-02-04T03:54:12;122.90;;;57.70;;
39924;SDS011;25592;49.986;11.618;2024-02-04T03:56:57;123.53;;;59.17;;
39924;SDS011;25592;49.986;11.618;2024-02-04T03:59:46;125.17;;;59.50;;
39924;SDS011;25592;49.986;11.618;2024-02-04T04:02:31;123.20;;;58.00;;
39924;SDS011;25592;49.986;11.618;2024-02-04T04:05:17;120.03;;;56.90;;
39924;SDS011;25592;49.986;11.618;2024-02-04T04:08:02;121.53;;;58.20;;
39924;SDS011;25592;49.986;11.618;2024-02-04T04:10:48;121.33;;;58.87;;
39924;SDS011;25592;49.986;11.618;2024-02-04T04:13:33;121.40;;;59.20;;
39924;SDS011;25592;49.986;11.618;2024-02-04T04:16:20;121.53;;;58.37;;
39924;SDS011;25592;49.986;11.618;2024-02-04T04:19:06;121.30;;;57.43;;
39924;SDS011;25592;49.986;11.618;2024-02-04T04:21:52;124.27;;;58.37;;
39924;SDS011;25592;49.986;11.618;2024-02-04T04:24:39;124.80;;;58.50;;
39924;SDS011;25592;49.986;11.618;2024-02-04T04:27:25;121.60;;;58.00;;
39924;SDS011;25592;49.986;11.618;2024-02-04T04:30:10;124.20;;;58.53;;
39924;SDS011;25592;49.986;11.618;2024-02-04T04:32:56;123.70;;;58.73;;
39924;SDS011;25592;49.986;11.618;2024-02-04T04:35:43;124.43;;;59.83;;
39924;SDS011;25592;49.986;11.618;2024-02-04T04:38:29;123.33;;;58.00;;
39924;SDS011;25592;49.986;11.618;2024-02-04T04:41:15;124.10;;;58.43;;
39924;SDS011;25592;49.986;11.618;2024-02-04T04:44:00;123.77;;;58.77;;
39924;SDS011;25592;49.986;11.618;2024-02-04T04:46:46;126.20;;;60.00;;
39924;SDS011;25592;49.986;11.618;2024-02-04T04:49:32;125.47;;;60.47;;
39924;SDS011;25592;49.986;11.618;2024-02-04T04:52:17;125.67;;;58.63;;
39924;SDS011;25592;49.986;11.618;2024-02-04T04:55:03;121.97;;;58.17;;
39924;SDS011;25592;49.986;11.618;2024-02-04T04:57:48;121.30;;;60.27;;
39924;SDS011;25592;49.986;11.618;2024-02-04T05:00:34;120.30;;;57.63;;
39924;SDS011;25592;49.986;11.618;2024-02-04T05:03:19;121.27;;;57.60;;
39924;SDS011;25592;49.986;11.618;2024-02-04T05:06:05;121.90;;;58.20;;
39924;SDS011;25592;49.986;11.618;2024-02-04T05:08:50;122.87;;;60.07;;
39924;SDS011;25592;49.986;11.618;2024-02-04T05:11:36;124.50;;;58.43;;
39924;SDS011;25592;49.986;11.618;2024-02-04T05:14:21;124.13;;;59.33;;
39924;SDS011;25592;49.986;11.618;2024-02-04T05:17:07;124.77;;;59.60;;
39924;SDS011;25592;49.986;11.618;2024-02-04T05:19:52;123.30;;;56.90;;
39924;SDS011;25592;49.986;11.618;2024-02-04T05:22:37;123.93;;;59.43;;
39924;SDS011;25592;49.986;11.618;2024-02-04T05:25:23;123.90;;;58.97;;
39924;SDS011;25592;49.986;11.618;2024-02-04T05:28:10;122.90;;;58.40;;
39924;SDS011;25592;49.986;11.618;2024-02-04T05:30:55;123.07;;;58.83;;
39924;SDS011;25592;49.986;11.618;2024-02-04T05:33:41;122.47;;;57.97;;
39924;SDS011;25592;49.986;11.618;2024-02-04T05:36:26;122.63;;;59.37;;
39924;SDS011;25592;49.986;11.618;2024-02-04T05:39:12;123.40;;;58.43;;
39924;SDS011;25592;49.986;11.618;2024-02-04T05:41:58;123.23;;;57.70;;
39924;SDS011;25592;49.986;11.618;2024-02-04T05:44:44;121.87;;;59.20;;
39924;SDS011;25592;49.986;11.618;2024-02-04T05:47:29;124.87;;;58.90;;
39924;SDS011;25592;49.986;11.618;2024-02-04T05:50:15;125.13;;;58.43;;
39924;SDS011;25592;49.986;11.618;2024-02-04T05:53:00;125.80;;;58.10;;
39924;SDS011;25592;49.986;11.618;2024-02-04T05:55:46;127.83;;;61.03;;
39924;SDS011;25592;49.986;11.618;2024-02-04T05:58:31;122.60;;;56.97;;
39924;SDS011;25592;49.986;11.618;2024-02-04T06:01:17;127.57;;;60.17;;
39924;SDS011;25592;49.986;11.618;2024-02-04T06:04:03;123.70;;;58.13;;
39924;SDS011;25592;49.986;11.618;2024-02-04T06:06:49;126.93;;;60.47;;
39924;SDS011;25592;49.986;11.618;2024-02-04T06:09:35;124.17;;;58.70;;
39924;SDS011;25592;49.986;11.618;2024-02-04T06:12:20;125.30;;;58.87;;
39924;SDS011;25592;49.986;11.618;2024-02-04T06:15:15;123.47;;;59.37;;
39924;SDS011;25592;49.986;11.618;2024-02-04T06:18:01;122.43;;;58.40;;
39924;SDS011;25592;49.986;11.618;2024-02-04T06:20:47;122.67;;;59.17;;
39924;SDS011;25592;49.986;11.618;2024-02-04T06:23:32;122.37;;;57.17;;
39924;SDS011;25592;49.986;11.618;2024-02-04T06:26:18;124.77;;;57.67;;
39924;SDS011;25592;49.986;11.618;2024-02-04T06:29:04;124.50;;;58.50;;
39924;SDS011;25592;49.986;11.618;2024-02-04T06:31:49;123.63;;;58.93;;
39924;SDS011;25592;49.986;11.618;2024-02-04T06:34:36;128.33;;;60.10;;
39924;SDS011;25592;49.986;11.618;2024-02-04T06:37:22;120.97;;;58.37;;
39924;SDS011;25592;49.986;11.618;2024-02-04T06:40:07;124.80;;;58.80;;
39924;SDS011;25592;49.986;11.618;2024-02-04T06:42:53;126.20;;;58.93;;
39924;SDS011;25592;49.986;11.618;2024-02-04T06:45:39;123.73;;;58.47;;
39924;SDS011;25592;49.986;11.618;2024-02-04T06:48:25;123.47;;;57.67;;
39924;SDS011;25592;49.986;11.618;2024-02-04T06:51:10;124.50;;;58.97;;
39924;SDS011;25592;49.986;11.618;2024-02-04T06:53:56;126.47;;;58.30;;
39924;SDS011;25592;49.986;11.618;2024-02-04T06:56:41;129.70;;;64.53;;
39924;SDS011;25592;49.986;11.618;2024-02-04T06:59:27;122.83;;;56.73;;
39924;SDS011;25592;49.986;11.618;2024-02-04T07:02:12;124.43;;;57.67;;
39924;SDS011;25592;49.986;11.618;2024-02-04T07:04:58;126.83;;;59.80;;
39924;SDS011;25592;49.986;11.618;2024-02-04T07:07:43;126.20;;;59.33;;
39924;SDS011;25592;49.986;11.618;2024-02-04T07:10:29;124.93;;;58.27;;
39924;SDS011;25592;49.986;11.618;2024-02-04T07:13:15;128.40;;;59.23;;
39924;SDS011;25592;49.986;11.618;2024-02-04T07:16:00;128.30;;;62.87;;
39924;SDS011;25592;49.986;11.618;2024-02-04T07:18:46;127.53;;;61.30;;
39924;SDS011;25592;49.986;11.618;2024-02-04T07:21:31;125.27;;;58.27;;
39924;SDS011;25592;49.986;11.618;2024-02-04T07:24:16;125.73;;;58.77;;
39924;SDS011;25592;49.986;11.618;2024-02-04T07:27:03;126.40;;;60.90;;
39924;SDS011;25592;49.986;11.618;2024-02-04T07:29:49;127.70;;;59.87;;
39924;SDS011;25592;49.986;11.618;2024-02-04T07:32:34;125.93;;;59.17;;
39924;SDS011;25592;49.986;11.618;2024-02-04T07:35:23;126.50;;;58.13;;
39924;SDS011;25592;49.986;11.618;2024-02-04T07:38:08;127.10;;;59.40;;
39924;SDS011;25592;49.986;11.618;2024-02-04T07:40:54;127.37;;;58.97;;
39924;SDS011;25592;49.986;11.618;2024-02-04T07:43:41;127.37;;;58.87;;
39924;SDS011;25592;49.986;11.618;2024-02-04T07:46:28;127.97;;;58.47;;
39924;SDS011;25592;49.986;11.618;2024-02-04T07:49:14;127.97;;;58.07;;
39924;SDS011;25592;49.986;11.618;2024-02-04T07:51:59;126.73;;;58.60;;
39924;SDS011;25592;49.986;11.618;2024-02-04T07:54:44;129.10;;;59.70;;
39924;SDS011;25592;49.986;11.618;2024-02-04T07:57:30;128.67;;;55.93;;
39924;SDS011;25592;49.986;11.618;2024-02-04T08:00:16;129.03;;;58.93;;
39924;SDS011;25592;49.986;11.618;2024-02-04T08:03:02;131.20;;;59.60;;
39924;SDS011;25592;49.986;11.618;2024-02-04T08:05:47;131.43;;;62.30;;
39924;SDS011;25592;49.986;11.618;2024-02-04T08:08:33;128.20;;;58.97;;
39924;SDS011;25592;49.986;11.618;2024-02-04T08:11:20;133.53;;;64.20;;
39924;SDS011;25592;49.986;11.618;2024-02-04T08:14:06;130.73;;;59.27;;
39924;SDS011;25592;49.986;11.618;2024-02-04T08:16:52;132.27;;;60.17;;
39924;SDS011;25592;49.986;11.618;2024-02-04T08:19:37;130.87;;;59.77;;
39924;SDS011;25592;49.986;11.618;2024-02-04T08:22:22;131.13;;;60.43;;
39924;SDS011;25592;49.986;11.618;2024-02-04T08:25:08;128.53;;;56.07;;
39924;SDS011;25592;49.986;11.618;2024-02-04T08:27:57;125.40;;;60.53;;
39924;SDS011;25592;49.986;11.618;2024-02-04T08:30:43;124.00;;;59.53;;
39924;SDS011;25592;49.986;11.618;2024-02-04T08:33:28;122.57;;;58.00;;
39924;SDS011;25592;49.986;11.618;2024-02-04T08:36:14;124.83;;;59.43;;
39924;SDS011;25592;49.986;11.618;2024-02-04T08:39:00;126.50;;;59.23;;
39924;SDS011;25592;49.986;11.618;2024-02-04T08:41:45;124.87;;;58.03;;
39924;SDS011;25592;49.986;11.618;2024-02-04T08:44:31;123.00;;;58.47;;
39924;SDS011;25592;49.986;11.618;2024-02-04T08:47:24;121.77;;;58.03;;
39924;SDS011;25592;49.986;11.618;2024-02-04T08:50:09;125.77;;;60.73;;
39924;SDS011;25592;49.986;11.618;2024-02-04T08:52:57;125.30;;;59.10;;
39924;SDS011;25592;49.986;11.618;2024-02-04T08:55:42;123.33;;;59.13;;
39924;SDS011;25592;49.986;11.618;2024-02-04T08:58:28;128.00;;;60.23;;
39924;SDS011;25592;49.986;11.618;2024-02-04T09:01:13;128.10;;;60.03;;
39924;SDS011;25592;49.986;11.618;2024-02-04T09:03:59;127.93;;;59.33;;
39924;SDS011;25592;49.986;11.618;2024-02-04T09:06:44;128.83;;;60.60;;
39924;SDS011;25592;49.986;11.618;2024-02-04T09:09:30;127.60;;;58.77;;
39924;SDS011;25592;49.986;11.618;2024-02-04T09:12:15;127.90;;;57.57;;
39924;SDS011;25592;49.986;11.618;2024-02-04T09:15:01;127.83;;;58.33;;
39924;SDS011;25592;49.986;11.618;2024-02-04T09:17:46;129.53;;;63.40;;
39924;SDS011;25592;49.986;11.618;2024-02-04T09:20:32;127.67;;;60.57;;
39924;SDS011;25592;49.986;11.618;2024-02-04T09:23:17;130.97;;;59.40;;
39924;SDS011;25592;49.986;11.618;2024-02-04T09:26:03;131.43;;;66.90;;
39924;SDS011;25592;49.986;11.618;2024-02-04T09:28:49;133.67;;;61.80;;
39924;SDS011;25592;49.986;11.618;2024-02-04T09:31:34;131.30;;;62.67;;
39924;SDS011;25592;49.986;11.618;2024-02-04T09:34:20;128.33;;;57.93;;
39924;SDS011;25592;49.986;11.618;2024-02-04T09:37:06;129.30;;;59.67;;
39924;SDS011;25592;49.986;11.618;2024-02-04T09:39:52;131.93;;;60.10;;
39924;SDS011;25592;49.986;11.618;2024-02-04T09:42:38;128.37;;;58.80;;
39924;SDS011;25592;49.986;11.618;2024-02-04T09:45:23;132.03;;;61.43;;
39924;SDS011;25592;49.986;11.618;2024-02-04T09:48:09;128.07;;;58.90;;
39924;SDS011;25592;49.986;11.618;2024-02-04T09:50:56;128.20;;;58.40;;
39924;SDS011;25592;49.986;11.618;2024-02-04T09:53:45;127.70;;;58.93;;
39924;SDS011;25592;49.986;11.618;2024-02-04T09:56:34;125.40;;;59.35;;
39924;SDS011;25592;49.986;11.618;2024-02-04T09:59:22;130.37;;;59.37;;
39924;SDS011;25592;49.986;11.618;2024-02-04T10:02:07;126.27;;;60.03;;
39924;SDS011;25592;49.986;11.618;2024-02-04T10:04:54;124.87;;;60.57;;
39924;SDS011;25592;49.986;11.618;2024-02-04T10:07:39;125.63;;;59.43;;
39924;SDS011;25592;49.986;11.618;2024-02-04T10:10:25;125.57;;;60.43;;
39924;SDS011;25592;49.986;11.618;2024-02-04T10:13:11;123.00;;;56.57;;
39924;SDS011;25592;49.986;11.618;2024-02-04T10:15:56;129.73;;;65.77;;
39924;SDS011;25592;49.986;11.618;2024-02-04T10:18:42;125.60;;;60.57;;
39924;SDS011;25592;49.986;11.618;2024-02-04T10:21:29;127.60;;;60.53;;
39924;SDS011;25592;49.986;11.618;2024-02-04T10:24:15;125.67;;;58.90;;
39924;SDS011;25592;49.986;11.618;2024-02-04T10:27:01;125.63;;;61.83;;
39924;SDS011;25592;49.986;11.618;2024-02-04T10:29:46;123.93;;;60.50;;
39924;SDS011;25592;49.986;11.618;2024-02-04T10:32:31;123.00;;;57.93;;
39924;SDS011;25592;49.986;11.618;2024-02-04T10:35:17;123.53;;;59.33;;
39924;SDS011;25592;49.986;11.618;2024-02-04T10:38:07;129.50;;;59.50;;
39924;SDS011;25592;49.986;11.618;2024-02-04T10:40:53;127.23;;;59.17;;
39924;SDS011;25592;49.986;11.618;2024-02-04T10:43:40;130.17;;;60.57;;
39924;SDS011;25592;49.986;11.618;2024-02-04T10:46:29;127.77;;;59.07;;
39924;SDS011;25592;49.986;11.618;2024-02-04T10:49:18;131.57;;;59.97;;
39924;SDS011;25592;49.986;11.618;2024-02-04T10:52:06;135.33;;;61.67;;
39924;SDS011;25592;49.986;11.618;2024-02-04T10:54:55;134.30;;;64.43;;
39924;SDS011;25592;49.986;11.618;2024-02-04T10:57:41;130.30;;;58.33;;
39924;SDS011;25592;49.986;11.618;2024-02-04T11:00:28;131.07;;;58.60;;
39924;SDS011;25592;49.986;11.618;2024-02-04T11:03:14;124.27;;;58.97;;
39924;SDS011;25592;49.986;11.618;2024-02-04T11:06:04;128.23;;;64.37;;
39924;SDS011;25592;49.986;11.618;2024-02-04T11:08:50;126.00;;;61.00;;
39924;SDS011;25592;49.986;11.618;2024-02-04T11:11:40;125.27;;;59.73;;
39924;SDS011;25592;49.986;11.618;2024-02-04T11:14:25;123.97;;;58.27;;
39924;SDS011;25592;49.986;11.618;2024-02-04T11:23:41;125.83;;;63.30;;
39924;SDS011;25592;49.986;11.618;2024-02-04T11:26:39;124.83;;;59.47;;
39924;SDS011;25592;49.986;11.618;2024-02-04T11:29:25;125.20;;;61.03;;
39924;SDS011;25592;49.986;11.618;2024-02-04T11:32:11;125.00;;;59.00;;
39924;SDS011;25592;49.986;11.618;2024-02-04T11:34:58;128.67;;;62.20;;
39924;SDS011;25592;49.986;11.618;2024-02-04T11:37:46;126.03;;;59.17;;
39924;SDS011;25592;49.986;11.618;2024-02-04T11:40:35;128.60;;;57.23;;
39924;SDS011;25592;49.986;11.618;2024-02-04T11:43:22;125.90;;;58.13;;
39924;SDS011;25592;49.986;11.618;2024-02-04T11:46:15;121.70;;;58.77;;
39924;SDS011;25592;49.986;11.618;2024-02-04T11:49:13;120.87;;;59.53;;
39924;SDS011;25592;49.986;11.618;2024-02-04T11:52:04;117.20;;;58.37;;
39924;SDS011;25592;49.986;11.618;2024-02-04T11:54:50;116.97;;;57.47;;
39924;SDS011;25592;49.986;11.618;2024-02-04T11:57:36;119.13;;;58.93;;
39924;SDS011;25592;49.986;11.618;2024-02-04T12:00:22;120.03;;;59.27;;
39924;SDS011;25592;49.986;11.618;2024-02-04T12:03:08;122.70;;;59.67;;
39924;SDS011;25592;49.986;11.618;2024-02-04T12:05:53;126.43;;;63.33;;
39924;SDS011;25592;49.986;11.618;2024-02-04T12:08:39;122.60;;;57.93;;
39924;SDS011;25592;49.986;11.618;2024-02-04T12:11:25;120.17;;;57.53;;
39924;SDS011;25592;49.986;11.618;2024-02-04T12:14:12;120.93;;;57.40;;
39924;SDS011;25592;49.986;11.618;2024-02-04T12:16:59;119.47;;;59.50;;
39924;SDS011;25592;49.986;11.618;2024-02-04T12:19:52;122.60;;;59.60;;
39924;SDS011;25592;49.986;11.618;2024-02-04T12:22:38;124.93;;;62.37;;
39924;SDS011;25592;49.986;11.618;2024-02-04T12:25:23;124.50;;;59.93;;
39924;SDS011;25592;49.986;11.618;2024-02-04T12:28:12;123.10;;;58.93;;
39924;SDS011;25592;49.986;11.618;2024-02-04T12:30:59;123.20;;;59.00;;
39924;SDS011;25592;49.986;11.618;2024-02-04T12:33:54;122.93;;;59.67;;
39924;SDS011;25592;49.986;11.618;2024-02-04T12:36:45;123.93;;;59.10;;
39924;SDS011;25592;49.986;11.618;2024-02-04T12:39:34;122.00;;;58.43;;
39924;SDS011;25592;49.986;11.618;2024-02-04T12:42:19;121.63;;;58.40;;
39924;SDS011;25592;49.986;11.618;2024-02-04T12:45:06;122.07;;;59.83;;
39924;SDS011;25592;49.986;11.618;2024-02-04T12:47:52;121.93;;;58.87;;
39924;SDS011;25592;49.986;11.618;2024-02-04T12:50:39;122.40;;;59.43;;
39924;SDS011;25592;49.986;11.618;2024-02-04T12:53:24;122.07;;;59.33;;
39924;SDS011;25592;49.986;11.618;2024-02-04T12:56:10;121.40;;;59.23;;
39924;SDS011;25592;49.986;11.618;2024-02-04T12:58:56;124.77;;;60.37;;
39924;SDS011;25592;49.986;11.618;2024-02-04T13:01:42;122.47;;;58.37;;
39924;SDS011;25592;49.986;11.618;2024-02-04T13:04:33;128.63;;;59.40;;
39924;SDS011;25592;49.986;11.618;2024-02-04T13:07:23;126.43;;;59.43;;
39924;SDS011;25592;49.986;11.618;2024-02-04T13:10:13;125.23;;;58.87;;
39924;SDS011;25592;49.986;11.618;2024-02-04T13:12:59;124.50;;;61.40;;
39924;SDS011;25592;49.986;11.618;2024-02-04T13:15:46;125.07;;;59.00;;
39924;SDS011;25592;49.986;11.618;2024-02-04T13:18:31;126.23;;;56.50;;
39924;SDS011;25592;49.986;11.618;2024-02-04T13:21:17;127.63;;;59.73;;
39924;SDS011;25592;49.986;11.618;2024-02-04T13:24:04;121.10;;;58.30;;
39924;SDS011;25592;49.986;11.618;2024-02-04T13:26:50;120.80;;;58.97;;
39924;SDS011;25592;49.986;11.618;2024-02-04T13:29:36;124.70;;;59.73;;
39924;SDS011;25592;49.986;11.618;2024-02-04T13:32:22;126.07;;;61.40;;
39924;SDS011;25592;49.986;11.618;2024-02-04T13:35:07;127.73;;;60.53;;
39924;SDS011;25592;49.986;11.618;2024-02-04T13:38:03;124.70;;;60.23;;
39924;SDS011;25592;49.986;11.618;2024-02-04T13:40:50;125.23;;;58.20;;
39924;SDS011;25592;49.986;11.618;2024-02-04T13:43:35;125.37;;;58.87;;
39924;SDS011;25592;49.986;11.618;2024-02-04T13:46:21;124.43;;;57.47;;
39924;SDS011;25592;49.986;11.618;2024-02-04T13:49:06;125.63;;;59.37;;
39924;SDS011;25592;49.986;11.618;2024-02-04T13:51:52;125.67;;;58.23;;
39924;SDS011;25592;49.986;11.618;2024-02-04T13:54:37;125.20;;;59.57;;
39924;SDS011;25592;49.986;11.618;2024-02-04T13:57:23;126.67;;;59.67;;
39924;SDS011;25592;49.986;11.618;2024-02-04T14:00:08;123.77;;;58.43;;
39924;SDS011;25592;49.986;11.618;2024-02-04T14:02:54;125.40;;;58.17;;
39924;SDS011;25592;49.986;11.618;2024-02-04T14:05:40;125.90;;;58.17;;
39924;SDS011;25592;49.986;11.618;2024-02-04T14:08:25;126.20;;;57.43;;
39924;SDS011;25592;49.986;11.618;2024-02-04T14:11:11;126.10;;;57.77;;
39924;SDS011;25592;49.986;11.618;2024-02-04T14:13:56;126.97;;;59.57;;
39924;SDS011;25592;49.986;11.618;2024-02-04T14:16:42;127.63;;;58.50;;
39924;SDS011;25592;49.986;11.618;2024-02-04T14:19:27;131.77;;;61.47;;
39924;SDS011;25592;49.986;11.618;2024-02-04T14:22:13;127.40;;;57.03;;
39924;SDS011;25592;49.986;11.618;2024-02-04T14:24:58;129.00;;;61.10;;
39924;SDS011;25592;49.986;11.618;2024-02-04T14:27:45;126.67;;;58.03;;
39924;SDS011;25592;49.986;11.618;2024-02-04T14:30:30;135.57;;;60.40;;
39924;SDS011;25592;49.986;11.618;2024-02-04T14:33:16;130.80;;;58.70;;
39924;SDS011;25592;49.986;11.618;2024-02-04T14:36:01;137.50;;;63.77;;
39924;SDS011;25592;49.986;11.618;2024-02-04T14:38:47;137.83;;;60.93;;
39924;SDS011;25592;49.986;11.618;2024-02-04T14:41:36;132.23;;;58.23;;
39924;SDS011;25592;49.986;11.618;2024-02-04T14:44:21;134.07;;;59.17;;
39924;SDS011;25592;49.986;11.618;2024-02-04T14:47:08;133.47;;;59.10;;
39924;SDS011;25592;49.986;11.618;2024-02-04T14:49:53;133.97;;;58.17;;
39924;SDS011;25592;49.986;11.618;2024-02-04T14:52:39;132.87;;;59.40;;
39924;SDS011;25592;49.986;11.618;2024-02-04T14:55:25;129.07;;;57.90;;
39924;SDS011;25592;49.986;11.618;2024-02-04T14:58:10;128.97;;;59.73;;
39924;SDS011;25592;49.986;11.618;2024-02-04T15:00:56;129.53;;;58.60;;
39924;SDS011;25592;49.986;11.618;2024-02-04T15:03:43;127.30;;;57.80;;
39924;SDS011;25592;49.986;11.618;2024-02-04T15:06:28;130.40;;;59.70;;
39924;SDS011;25592;49.986;11.618;2024-02-04T15:09:17;129.43;;;59.10;;
39924;SDS011;25592;49.986;11.618;2024-02-04T15:12:03;131.83;;;60.17;;
39924;SDS011;25592;49.986;11.618;2024-02-04T15:14:49;129.20;;;58.43;;
39924;SDS011;25592;49.986;11.618;2024-02-04T15:17:35;130.10;;;58.60;;
39924;SDS011;25592;49.986;11.618;2024-02-04T15:20:21;129.80;;;59.13;;
39924;SDS011;25592;49.986;11.618;2024-02-04T15:23:08;131.27;;;58.63;;
39924;SDS011;25592;49.986;11.618;2024-02-04T15:25:54;134.40;;;62.43;;
39924;SDS011;25592;49.986;11.618;2024-02-04T15:28:40;131.83;;;58.73;;
39924;SDS011;25592;49.986;11.618;2024-02-04T15:31:26;131.97;;;59.00;;
39924;SDS011;25592;49.986;11.618;2024-02-04T15:34:13;136.43;;;60.47;;
39924;SDS011;25592;49.986;11.618;2024-02-04T15:36:59;133.23;;;59.97;;
39924;SDS011;25592;49.986;11.618;2024-02-04T15:39:44;131.70;;;58.73;;
39924;SDS011;25592;49.986;11.618;2024-02-04T15:42:30;131.23;;;60.43;;
39924;SDS011;25592;49.986;11.618;2024-02-04T15:45:15;136.20;;;60.53;;
39924;SDS011;25592;49.986;11.618;2024-02-04T15:48:03;131.60;;;60.07;;
39924;SDS011;25592;49.986;11.618;2024-02-04T15:50:50;131.13;;;58.43;;